Time;durP1;ratioP1;P1;durP2;ratioP2;P2;SDS_P1;SDS_P2;PMS_P1;PMS_P2;Temp;Humidity;BMP_temperature;BMP_pressure;BME280_temperature;BME280_humidity;BME280_pressure;Samples;Min_cycle;Max_cycle;Signal;HPM_P1;HPM_P2
2023/05/22 00:01:18;;;;;;;22.38;13.70;;;;;;;15.89;86.81;101385.06;5019521;28;20037;-71
2023/05/22 00:03:43;;;;;;;26.73;14.23;;;;;;;15.90;86.72;101379.47;5029572;28;20025;-72
2023/05/22 00:06:10;;;;;;;25.85;15.55;;;;;;;15.82;89.38;101380.13;5011552;28;20477;-71
2023/05/22 00:08:36;;;;;;;28.60;14.68;;;;;;;15.76;87.66;101377.91;5009800;28;20034;-72
2023/05/22 00:11:02;;;;;;;22.83;14.18;;;;;;;15.79;88.60;101376.75;5024002;28;20041;-72
2023/05/22 00:13:27;;;;;;;23.33;15.25;;;;;;;15.77;88.95;101381.53;5029551;28;20033;-72
2023/05/22 00:15:53;;;;;;;28.83;15.90;;;;;;;15.72;88.81;101376.44;5019050;28;20117;-72
2023/05/22 00:18:18;;;;;;;29.70;16.50;;;;;;;15.65;90.44;101382.56;5009833;28;20057;-72
2023/05/22 00:20:45;;;;;;;30.35;17.17;;;;;;;15.56;90.24;101371.34;5008202;28;20116;-72
2023/05/22 00:23:11;;;;;;;22.13;15.95;;;;;;;15.54;89.97;101375.22;5009507;28;20044;-72
2023/05/22 00:25:37;;;;;;;27.98;16.58;;;;;;;15.50;90.44;101380.09;5008243;28;20045;-73
2023/05/22 00:28:03;;;;;;;24.85;15.73;;;;;;;15.52;89.61;101378.09;5009442;28;20048;-73
2023/05/22 00:30:29;;;;;;;32.35;16.35;;;;;;;15.55;88.62;101376.97;5013808;28;20335;-72
2023/05/22 00:32:55;;;;;;;25.73;16.17;;;;;;;15.48;90.97;101373.88;5009664;28;20037;-72
2023/05/22 00:35:20;;;;;;;25.25;15.60;;;;;;;15.48;89.44;101365.66;5017499;28;20052;-72
2023/05/22 00:37:46;;;;;;;26.92;16.55;;;;;;;15.45;90.62;101359.56;5008788;28;20462;-72
2023/05/22 00:40:12;;;;;;;26.50;16.80;;;;;;;15.42;90.05;101368.03;5007543;28;20408;-72
2023/05/22 00:42:38;;;;;;;31.75;16.95;;;;;;;15.42;89.44;101370.78;5024379;28;20481;-73
2023/05/22 00:45:05;;;;;;;30.33;17.98;;;;;;;15.40;90.50;101370.03;5019214;28;20034;-72
2023/05/22 00:47:31;;;;;;;27.88;17.50;;;;;;;15.38;89.63;101367.41;5007726;28;20588;-72
2023/05/22 00:49:57;;;;;;;30.48;18.00;;;;;;;15.31;90.85;101367.06;5006598;28;20040;-72
2023/05/22 00:52:23;;;;;;;28.85;17.70;;;;;;;15.26;90.33;101365.72;5008830;28;20034;-73
2023/05/22 00:54:49;;;;;;;29.33;17.27;;;;;;;15.24;90.13;101362.22;5007561;28;20048;-73
2023/05/22 00:57:15;;;;;;;29.10;18.42;;;;;;;15.25;90.92;101366.72;5009047;28;20030;-72
2023/05/22 00:59:42;;;;;;;24.80;16.98;;;;;;;15.23;89.79;101361.34;5006897;28;20034;-72
2023/05/22 01:02:07;;;;;;;29.05;17.55;;;;;;;15.23;90.19;101372.31;5009611;28;20060;-72
2023/05/22 01:04:34;;;;;;;30.38;17.73;;;;;;;15.24;89.78;101367.69;5014104;28;20836;-72
2023/05/22 01:07:01;;;;;;;35.97;18.42;;;;;;;15.23;89.28;101355.00;5008894;28;20042;-72
2023/05/22 01:09:28;;;;;;;28.77;17.77;;;;;;;15.19;90.58;101369.97;5006017;28;20026;-73
2023/05/22 01:12:17;;;;;;;28.95;17.02;;;;;;;15.14;89.58;101375.81;5007866;28;20041;-72
2023/05/22 01:14:47;;;;;;;28.30;17.23;;;;;;;15.10;90.21;101359.75;5007006;28;20548;-72
2023/05/22 01:17:52;;;;;;;30.73;17.67;;;;;;;15.08;90.54;101362.66;5008923;28;20534;-72
2023/05/22 01:20:28;;;;;;;33.20;18.20;;;;;;;15.07;91.19;101368.25;5012333;28;20073;-72
2023/05/22 01:23:31;;;;;;;31.20;17.60;;;;;;;15.09;90.46;101364.38;5007144;28;20249;-71
2023/05/22 01:26:11;;;;;;;28.63;17.90;;;;;;;15.08;90.96;101359.03;5008281;28;20030;-72
2023/05/22 01:29:00;;;;;;;29.83;17.98;;;;;;;15.09;89.46;101358.91;5008401;28;20033;-72
2023/05/22 01:31:30;;;;;;;32.53;18.92;;;;;;;15.04;91.54;101355.66;5023037;28;20442;-72
2023/05/22 01:33:59;;;;;;;35.10;20.33;;;;;;;15.01;92.26;101358.66;5009917;28;20046;-72
2023/05/22 01:36:29;;;;;;;40.55;19.25;;;;;;;14.95;91.62;101353.69;5028357;28;20033;-72
2023/05/22 01:38:57;;;;;;;31.08;19.50;;;;;;;14.96;90.84;101352.69;5027275;28;20033;-72
2023/05/22 01:41:24;;;;;;;34.78;19.70;;;;;;;14.92;92.10;101351.19;5025296;28;20090;-72
2023/05/22 01:43:50;;;;;;;30.35;19.42;;;;;;;14.89;91.91;101357.81;5027670;28;20045;-73
2023/05/22 01:46:16;;;;;;;28.17;19.08;;;;;;;14.88;91.08;101355.22;5014633;28;20044;-72
2023/05/22 01:48:41;;;;;;;30.92;19.25;;;;;;;14.86;92.10;101355.31;5007148;28;20038;-72
2023/05/22 01:51:14;;;;;;;35.20;21.42;;;;;;;14.84;92.39;101351.84;5008840;28;20038;-72
2023/05/22 01:53:50;;;;;;;33.63;20.65;;;;;;;14.74;92.95;101346.25;5007944;28;20053;-72
2023/05/22 01:56:35;;;;;;;36.03;20.70;;;;;;;14.77;92.74;101350.59;5008002;28;20040;-72
2023/05/22 01:59:09;;;;;;;30.67;18.10;;;;;;;14.77;91.71;101348.72;5006588;28;20282;-72
2023/05/22 02:01:37;;;;;;;29.17;18.35;;;;;;;14.76;91.63;101347.00;5007501;28;20538;-71
2023/05/22 02:04:04;;;;;;;34.97;19.67;;;;;;;14.77;91.00;101348.72;5006295;28;20052;-72
2023/05/22 02:06:32;;;;;;;33.08;18.73;;;;;;;14.74;91.74;101346.25;5007868;28;20045;-72
2023/05/22 02:09:00;;;;;;;32.08;19.25;;;;;;;14.73;91.03;101343.63;5005704;28;20021;-72
2023/05/22 02:11:27;;;;;;;31.08;18.92;;;;;;;14.74;90.48;101342.66;5012638;28;20412;-72
2023/05/22 02:13:54;;;;;;;34.17;20.60;;;;;;;14.70;91.87;101352.97;5027298;28;20045;-72
2023/05/22 02:16:20;;;;;;;30.60;19.45;;;;;;;14.64;91.24;101339.78;5012947;28;20739;-72
2023/05/22 02:18:47;;;;;;;33.60;19.88;;;;;;;14.62;91.85;101354.59;4989608;28;20030;-72
2023/05/22 02:21:12;;;;;;;35.45;19.00;;;;;;;14.57;91.48;101352.22;5006211;28;20030;-72
2023/05/22 02:23:38;;;;;;;32.47;20.60;;;;;;;14.49;93.09;101343.75;5007486;28;20445;-72
2023/05/22 02:26:04;;;;;;;32.35;18.38;;;;;;;14.48;91.93;101342.91;5007272;28;20328;-72
2023/05/22 02:28:30;;;;;;;28.80;18.48;;;;;;;14.49;92.26;101343.75;5011409;28;20144;-72
2023/05/22 02:30:56;;;;;;;31.38;19.50;;;;;;;14.53;93.25;101339.78;5015221;28;20052;-72
2023/05/22 02:33:21;;;;;;;31.48;19.90;;;;;;;14.58;91.82;101342.16;5006080;28;20040;-72
2023/05/22 02:35:48;;;;;;;30.85;19.55;;;;;;;14.61;91.82;101333.69;5016001;28;20424;-72
2023/05/22 02:38:13;;;;;;;29.65;20.10;;;;;;;14.63;91.78;101327.06;5006430;28;20061;-72
2023/05/22 02:40:43;;;;;;;34.95;20.67;;;;;;;14.68;91.83;101323.97;5006312;28;20065;-72
2023/05/22 02:43:09;;;;;;;33.30;19.63;;;;;;;14.70;91.03;101324.72;5007450;28;20120;-72
2023/05/22 02:45:35;;;;;;;34.15;20.40;;;;;;;14.70;91.63;101335.69;5011585;28;20051;-72
2023/05/22 02:48:02;;;;;;;32.03;19.65;;;;;;;14.69;91.96;101331.22;5005869;28;20437;-72
2023/05/22 02:50:27;;;;;;;29.60;19.35;;;;;;;14.70;91.16;101319.25;5022172;28;20572;-72
2023/05/22 02:52:53;;;;;;;32.75;20.90;;;;;;;14.68;92.64;101327.56;5006400;28;20030;-72
2023/05/22 02:55:18;;;;;;;35.63;20.65;;;;;;;14.64;92.47;101317.88;5013871;28;20045;-72
2023/05/22 02:57:44;;;;;;;28.27;19.77;;;;;;;14.61;92.49;101325.47;5024857;28;20467;-71
2023/05/22 03:00:10;;;;;;;42.80;21.40;;;;;;;14.58;92.43;101325.72;5023298;28;20112;-72
2023/05/22 03:02:37;;;;;;;30.50;19.90;;;;;;;14.52;91.30;101322.50;5007263;28;20450;-72
2023/05/22 03:05:04;;;;;;;29.92;20.60;;;;;;;14.52;91.78;101330.69;5005368;28;20121;-72
2023/05/22 03:07:30;;;;;;;29.95;19.67;;;;;;;14.48;91.66;101326.47;5005909;28;20394;-72
2023/05/22 03:09:56;;;;;;;32.00;19.38;;;;;;;14.45;91.55;101326.66;5006564;28;20017;-72
2023/05/22 03:12:21;;;;;;;29.20;19.33;;;;;;;14.43;90.66;101320.47;5004664;28;20100;-72
2023/05/22 03:14:46;;;;;;;33.88;20.25;;;;;;;14.40;90.95;101314.34;5006258;28;20125;-72
2023/05/22 03:17:12;;;;;;;32.85;20.00;;;;;;;14.36;91.43;101324.72;5006815;28;20064;-70
2023/05/22 03:19:37;;;;;;;30.75;19.27;;;;;;;14.35;91.53;101316.59;5005445;28;20025;-71
2023/05/22 03:22:03;;;;;;;35.70;20.35;;;;;;;14.29;91.69;101312.50;5025095;28;20025;-72
2023/05/22 03:24:29;;;;;;;32.03;20.30;;;;;;;14.27;91.36;101317.25;5023684;28;20029;-72
2023/05/22 03:26:54;;;;;;;32.20;20.20;;;;;;;14.23;91.46;101313.88;5004824;28;20444;-71
2023/05/22 03:29:30;;;;;;;37.33;21.35;;;;;;;14.21;91.34;101310.38;5004931;28;20141;-71
2023/05/22 03:31:56;;;;;;;30.92;19.90;;;;;;;14.16;91.86;101306.25;5019179;28;20124;-72
2023/05/22 03:34:21;;;;;;;37.58;21.17;;;;;;;14.05;92.49;101307.13;5009650;28;20107;-72
2023/05/22 03:36:47;;;;;;;39.65;20.55;;;;;;;14.02;92.52;101310.97;5024783;28;20103;-72
2023/05/22 03:39:15;;;;;;;44.80;21.92;;;;;;;13.93;93.60;101313.56;5021478;28;20409;-71
2023/05/22 03:41:48;;;;;;;33.08;20.98;;;;;;;13.88;93.54;101322.13;5021549;28;20038;-72
2023/05/22 03:44:13;;;;;;;34.58;20.58;;;;;;;13.89;93.37;101312.94;5021280;28;20588;-71
2023/05/22 03:46:39;;;;;;;36.55;22.33;;;;;;;13.91;93.08;101321.03;5009796;28;20037;-71
2023/05/22 03:49:04;;;;;;;35.78;19.63;;;;;;;13.92;92.91;101311.84;5004926;28;20034;-72
2023/05/22 03:51:30;;;;;;;32.63;21.67;;;;;;;13.93;92.98;101310.84;5006417;28;20241;-72
2023/05/22 03:53:56;;;;;;;30.77;21.23;;;;;;;13.91;93.28;101310.97;5006803;28;20043;-71
2023/05/22 03:56:21;;;;;;;41.95;22.42;;;;;;;13.91;93.45;101312.84;5024546;28;20198;-71
2023/05/22 03:58:47;;;;;;;39.17;23.45;;;;;;;13.87;94.03;101314.06;5023569;28;20101;-71
2023/05/22 04:01:13;;;;;;;38.35;22.42;;;;;;;13.86;93.47;101304.13;5005733;28;20144;-71
2023/05/22 04:03:38;;;;;;;37.60;22.27;;;;;;;13.84;93.40;101306.94;5017858;28;20045;-72
2023/05/22 04:06:04;;;;;;;38.80;22.85;;;;;;;13.84;93.60;101301.47;5024730;28;20539;-71
2023/05/22 04:08:30;;;;;;;39.38;23.67;;;;;;;13.82;93.97;101295.28;5023915;28;20104;-72
2023/05/22 04:10:55;;;;;;;36.08;20.75;;;;;;;13.83;93.24;101298.88;5006618;28;20037;-71
2023/05/22 04:13:21;;;;;;;42.88;21.58;;;;;;;13.82;93.54;101300.75;5006071;28;20034;-71
2023/05/22 04:15:46;;;;;;;36.03;21.20;;;;;;;13.83;93.80;101301.63;5009473;28;20029;-71
2023/05/22 04:18:12;;;;;;;39.88;22.33;;;;;;;13.77;94.41;101302.97;5025738;28;20231;-71
2023/05/22 04:20:39;;;;;;;39.58;22.48;;;;;;;13.76;95.34;101314.91;5024910;28;20033;-71
2023/05/22 04:23:06;;;;;;;44.53;23.13;;;;;;;13.61;96.04;101316.97;5025697;28;20549;-71
2023/05/22 04:25:33;;;;;;;41.78;22.23;;;;;;;13.60;94.92;101314.34;5011063;28;20026;-71
2023/05/22 04:28:01;;;;;;;43.10;24.15;;;;;;;13.63;96.28;101319.59;5008087;28;20117;-70
2023/05/22 04:30:27;;;;;;;39.28;22.98;;;;;;;13.65;95.04;101320.34;5013772;28;20065;-72
2023/05/22 04:32:53;;;;;;;41.63;22.55;;;;;;;13.62;95.99;101332.38;5029328;28;20033;-72
2023/05/22 04:35:18;;;;;;;38.92;21.65;;;;;;;13.67;94.69;101334.78;5010320;28;20199;-72
2023/05/22 04:37:46;;;;;;;36.33;21.88;;;;;;;13.72;94.55;101336.16;5026884;28;20583;-71
2023/05/22 04:40:13;;;;;;;39.63;20.67;;;;;;;13.83;94.19;101339.91;5010715;28;20778;-72
2023/05/22 04:42:39;;;;;;;31.58;19.80;;;;;;;13.91;93.09;101334.72;5009577;28;20061;-71
2023/05/22 04:45:05;;;;;;;39.22;21.80;;;;;;;13.93;93.97;101329.97;5007785;28;20047;-72
2023/05/22 04:47:31;;;;;;;37.50;22.15;;;;;;;13.94;94.40;101331.72;5009331;28;20044;-72
2023/05/22 04:49:58;;;;;;;39.70;21.52;;;;;;;13.95;93.85;101334.34;5009310;28;20469;-72
2023/05/22 04:52:24;;;;;;;33.67;20.15;;;;;;;13.96;92.99;101349.75;5008567;28;20038;-71
2023/05/22 04:54:51;;;;;;;36.58;20.90;;;;;;;14.01;93.01;101343.94;5007199;28;20084;-72
2023/05/22 04:57:21;;;;;;;42.70;22.25;;;;;;;14.07;92.73;101351.66;5007622;28;20030;-72
2023/05/22 04:59:47;;;;;;;34.70;21.80;;;;;;;14.09;94.56;101349.69;5006965;28;20045;-72
2023/05/22 05:02:13;;;;;;;38.53;21.75;;;;;;;14.09;93.74;101341.47;5010687;28;20029;-72
2023/05/22 05:04:39;;;;;;;42.47;21.83;;;;;;;14.14;93.68;101347.44;5026925;28;20457;-72
2023/05/22 05:07:05;;;;;;;38.72;21.77;;;;;;;14.17;93.75;101352.66;5007480;28;20565;-71
2023/05/22 05:09:32;;;;;;;41.22;22.65;;;;;;;14.24;92.60;101356.66;5009747;28;20142;-71
2023/05/22 05:11:57;;;;;;;38.17;21.52;;;;;;;14.30;93.62;101358.03;5007930;28;20030;-71
2023/05/22 05:14:24;;;;;;;38.08;21.98;;;;;;;14.36;93.98;101356.66;5006670;28;20041;-72
2023/05/22 05:16:53;;;;;;;40.95;21.75;;;;;;;14.41;93.49;101358.06;5008363;28;20390;-71
2023/05/22 05:19:20;;;;;;;47.75;23.85;;;;;;;14.38;93.18;101361.03;5008138;28;20041;-71
2023/05/22 05:21:48;;;;;;;38.83;22.70;;;;;;;14.40;93.17;101358.16;5007078;28;20121;-71
2023/05/22 05:24:15;;;;;;;43.58;23.20;;;;;;;14.45;92.86;101361.41;5005817;28;20030;-72
2023/05/22 05:26:41;;;;;;;47.95;25.27;;;;;;;14.48;93.60;101366.66;5007194;28;20030;-72
2023/05/22 05:29:06;;;;;;;48.55;24.58;;;;;;;14.53;93.52;101361.69;5007437;28;20100;-72
2023/05/22 05:31:40;;;;;;;37.85;22.92;;;;;;;14.60;93.35;101362.09;5019034;28;20030;-71
2023/05/22 05:34:12;;;;;;;42.42;23.27;;;;;;;14.65;94.31;101359.84;5010263;28;20132;-71
2023/05/22 05:36:51;;;;;;;43.17;23.92;;;;;;;14.78;92.95;101369.66;5026972;28;20033;-72
2023/05/22 05:39:18;;;;;;;41.67;24.00;;;;;;;14.86;91.93;101352.59;5020426;28;20036;-71
2023/05/22 05:41:43;;;;;;;44.08;23.52;;;;;;;14.93;91.54;101359.31;5007987;28;20045;-72
2023/05/22 05:44:09;;;;;;;48.22;24.60;;;;;;;14.92;92.28;101353.94;5021680;28;20140;-71
2023/05/22 05:46:34;;;;;;;46.03;23.45;;;;;;;14.96;92.65;101352.69;5008237;28;20056;-71
2023/05/22 05:49:08;;;;;;;41.53;24.65;;;;;;;14.98;93.28;101354.31;5006377;28;20437;-71
2023/05/22 05:51:35;;;;;;;48.53;24.33;;;;;;;15.00;92.62;101359.66;5026393;28;20030;-71
2023/05/22 05:54:01;;;;;;;47.28;26.10;;;;;;;14.99;92.75;101360.66;5025500;28;20033;-72
2023/05/22 05:56:26;;;;;;;47.50;25.42;;;;;;;15.04;93.27;101353.81;5009658;28;20088;-72
2023/05/22 05:58:52;;;;;;;41.25;23.90;;;;;;;15.20;91.95;101372.59;5020370;28;20030;-72
2023/05/22 06:01:28;;;;;;;48.58;25.58;;;;;;;15.29;92.04;101366.34;5006985;28;20029;-72
2023/05/22 06:03:54;;;;;;;49.53;23.52;;;;;;;15.44;90.31;101358.69;5000383;28;20030;-72
2023/05/22 06:06:25;;;;;;;49.03;24.30;;;;;;;15.57;91.74;101370.34;5006481;28;20037;-72
2023/05/22 06:09:16;;;;;;;45.17;25.45;;;;;;;15.62;91.07;101371.81;5005969;28;20051;-71
2023/05/22 06:12:11;;;;;;;43.67;23.48;;;;;;;15.67;90.47;101375.97;5008434;28;20103;-71
2023/05/22 06:14:39;;;;;;;46.10;24.98;;;;;;;15.82;90.27;101384.75;5006277;28;20034;-72
2023/05/22 06:17:05;;;;;;;54.08;26.67;;;;;;;15.88;89.68;101381.47;5006187;28;20437;-71
2023/05/22 06:19:31;;;;;;;50.53;24.88;;;;;;;15.88;89.86;101383.34;5016264;28;20273;-71
2023/05/22 06:21:56;;;;;;;48.83;25.30;;;;;;;16.02;90.40;101383.88;5025490;28;20033;-72
2023/05/22 06:24:22;;;;;;;49.42;25.30;;;;;;;16.17;88.30;101380.81;5000931;28;20357;-71
2023/05/22 06:26:48;;;;;;;48.75;25.48;;;;;;;16.15;89.82;101382.81;5006541;28;20030;-71
2023/05/22 06:29:14;;;;;;;47.63;24.75;;;;;;;16.32;87.88;101382.22;5022440;28;20060;-72
2023/05/22 06:31:39;;;;;;;51.17;26.17;;;;;;;16.47;89.54;101380.00;5011314;28;20151;-71
2023/05/22 06:34:06;;;;;;;48.30;25.17;;;;;;;16.65;87.60;101377.47;5008836;28;20069;-72
2023/05/22 06:36:33;;;;;;;41.70;25.60;;;;;;;16.88;87.71;101380.91;5008478;28;20069;-72
2023/05/22 06:39:00;;;;;;;45.38;25.45;;;;;;;17.07;85.24;101392.00;5004154;28;20061;-71
2023/05/22 06:41:51;;;;;;;52.05;26.15;;;;;;;17.09;85.56;101392.72;5007643;28;20479;-71
2023/05/22 06:44:16;;;;;;;47.15;26.30;;;;;;;16.99;86.34;101397.31;5016100;28;20098;-72
2023/05/22 06:46:41;;;;;;;49.28;26.98;;;;;;;16.93;86.26;101398.75;5017071;28;20470;-72
2023/05/22 06:49:13;;;;;;;51.40;26.83;;;;;;;16.93;86.91;101395.13;5007430;28;20355;-72
2023/05/22 06:51:44;;;;;;;48.97;26.42;;;;;;;16.94;86.21;101399.63;5021832;28;20069;-71
2023/05/22 06:54:12;;;;;;;46.70;25.10;;;;;;;16.90;85.60;101414.66;5013669;28;20025;-72
2023/05/22 06:56:44;;;;;;;56.30;26.50;;;;;;;16.86;85.57;101411.28;5025776;28;20201;-72
2023/05/22 06:59:14;;;;;;;55.40;26.17;;;;;;;16.83;85.18;101412.47;5009156;28;20056;-71
2023/05/22 07:01:58;;;;;;;49.58;26.63;;;;;;;16.72;85.54;101414.41;5009697;28;20068;-71
2023/05/22 07:04:37;;;;;;;48.25;25.70;;;;;;;16.60;87.39;101416.34;5024927;28;20033;-71
2023/05/22 07:07:10;;;;;;;54.75;28.25;;;;;;;16.43;87.39;101417.84;5025848;28;20095;-71
2023/05/22 07:09:36;;;;;;;49.92;28.75;;;;;;;16.42;87.47;101412.50;5004074;28;20144;-71
2023/05/22 07:12:03;;;;;;;44.97;26.73;;;;;;;16.48;86.98;101415.56;5005506;28;20127;-72
2023/05/22 07:14:29;;;;;;;49.90;27.90;;;;;;;16.52;86.42;101425.25;5005319;28;20486;-72
2023/05/22 07:16:55;;;;;;;57.92;29.38;;;;;;;16.64;88.64;101416.94;5006686;28;20033;-72
2023/05/22 07:19:25;;;;;;;50.65;29.35;;;;;;;16.75;86.84;101423.25;5005274;28;20030;-72
2023/05/22 07:21:53;;;;;;;57.65;30.67;;;;;;;16.85;88.08;101422.44;4989400;28;20128;-71
2023/05/22 07:24:19;;;;;;;58.95;30.02;;;;;;;16.99;86.08;101425.66;5004075;28;20026;-71
2023/05/22 07:26:45;;;;;;;49.70;28.67;;;;;;;17.09;85.11;101425.72;5005486;28;20133;-71
2023/05/22 07:29:12;;;;;;;54.85;29.42;;;;;;;17.21;84.71;101419.09;5004987;28;20018;-71
2023/05/22 07:31:38;;;;;;;59.13;29.00;;;;;;;17.41;84.19;101430.16;4989581;28;20088;-71
2023/05/22 07:34:04;;;;;;;55.30;30.83;;;;;;;17.52;85.70;101421.75;5004930;28;20078;-72
2023/05/22 07:36:30;;;;;;;58.55;31.58;;;;;;;17.50;83.49;101435.69;5005147;28;20587;-72
2023/05/22 07:38:57;;;;;;;57.80;31.13;;;;;;;17.55;83.78;101427.88;5004372;28;20113;-71
2023/05/22 07:41:24;;;;;;;54.22;32.17;;;;;;;17.75;84.98;101437.03;5004957;28;20079;-71
2023/05/22 07:43:49;;;;;;;53.50;31.08;;;;;;;17.74;84.01;101435.31;5004734;28;20481;-71
2023/05/22 07:46:20;;;;;;;50.20;30.83;;;;;;;17.78;82.31;101438.66;5012845;28;20026;-71
2023/05/22 07:49:05;;;;;;;56.85;31.90;;;;;;;17.74;83.54;101429.81;5006399;28;20045;-71
2023/05/22 07:51:31;;;;;;;56.65;33.60;;;;;;;17.78;84.72;101444.16;5005330;28;20515;-71
2023/05/22 07:53:57;;;;;;;54.90;32.95;;;;;;;17.82;85.07;101442.84;5005597;28;20046;-72
2023/05/22 07:56:24;;;;;;;55.55;32.30;;;;;;;17.98;83.92;101436.78;5014884;28;20033;-71
2023/05/22 07:58:50;;;;;;;56.28;33.70;;;;;;;17.98;83.01;101439.53;5008874;28;20030;-72
2023/05/22 08:01:18;;;;;;;58.83;33.08;;;;;;;18.12;83.88;101446.47;5019460;28;20035;-72
2023/05/22 08:03:43;;;;;;;54.78;32.33;;;;;;;18.30;82.17;101442.84;5017779;28;20544;-72
2023/05/22 08:06:09;;;;;;;61.33;33.97;;;;;;;18.41;82.77;101441.81;5010554;28;20034;-72
2023/05/22 08:08:35;;;;;;;55.42;33.58;;;;;;;18.59;82.13;101447.44;5028940;28;20037;-71
2023/05/22 08:11:00;;;;;;;62.25;36.40;;;;;;;18.53;81.91;101451.66;5027986;28;20308;-71
2023/05/22 08:13:26;;;;;;;55.72;34.35;;;;;;;18.48;82.25;101445.72;5027951;28;20034;-71
2023/05/22 08:15:51;;;;;;;59.35;32.80;;;;;;;18.75;81.75;101438.59;5021570;28;20029;-71
2023/05/22 08:18:16;;;;;;;59.42;33.20;;;;;;;19.01;80.94;101441.53;5009721;28;20474;-72
2023/05/22 08:20:42;;;;;;;58.72;32.80;;;;;;;19.18;79.88;101437.09;5009546;28;20018;-72
2023/05/22 08:23:07;;;;;;;62.33;36.63;;;;;;;19.26;81.15;101432.56;5009652;28;20092;-71
2023/05/22 08:25:33;;;;;;;54.63;32.75;;;;;;;19.47;79.24;101434.19;5009311;28;20038;-72
2023/05/22 08:27:58;;;;;;;63.83;34.70;;;;;;;19.61;78.57;101434.53;5009428;28;20508;-71
2023/05/22 08:30:23;;;;;;;61.30;33.90;;;;;;;19.74;77.51;101433.31;5009630;28;20029;-72
2023/05/22 08:32:49;;;;;;;60.25;33.53;;;;;;;19.78;76.52;101431.97;5009611;28;20481;-72
2023/05/22 08:35:15;;;;;;;62.72;34.72;;;;;;;19.77;76.62;101442.16;5007637;28;20049;-71
2023/05/22 08:37:43;;;;;;;56.80;34.03;;;;;;;19.88;78.08;101435.53;5009183;28;20063;-71
2023/05/22 08:40:11;;;;;;;57.80;33.10;;;;;;;20.09;79.05;101435.19;5009541;28;20398;-72
2023/05/22 08:42:37;;;;;;;61.88;34.53;;;;;;;20.24;77.41;101439.16;5009916;28;20096;-71
2023/05/22 08:45:03;;;;;;;56.55;34.05;;;;;;;20.47;76.70;101433.09;5009211;28;20030;-72
2023/05/22 08:47:32;;;;;;;59.63;34.65;;;;;;;20.65;74.65;101433.94;5007806;28;20486;-71
2023/05/22 08:49:59;;;;;;;54.60;33.55;;;;;;;20.96;75.85;101436.22;5008951;28;20120;-72
2023/05/22 08:52:51;;;;;;;54.17;33.95;;;;;;;21.03;75.12;101431.75;5009087;28;20093;-71
2023/05/22 08:55:18;;;;;;;58.35;34.63;;;;;;;21.35;73.86;101426.38;5004376;28;20417;-72
2023/05/22 08:57:48;;;;;;;49.80;32.75;;;;;;;21.54;72.71;101429.91;5008753;28;20556;-72
2023/05/22 09:00:15;;;;;;;55.38;32.63;;;;;;;21.85;72.19;101431.03;5020717;28;20187;-71
2023/05/22 09:02:41;;;;;;;52.00;32.05;;;;;;;21.94;71.63;101420.84;5008699;28;20034;-72
2023/05/22 09:05:08;;;;;;;55.80;34.70;;;;;;;22.07;69.61;101421.19;5009630;28;20124;-71
2023/05/22 09:07:34;;;;;;;57.65;32.30;;;;;;;22.40;70.25;101427.63;5008326;28;20099;-72
2023/05/22 09:10:00;;;;;;;53.53;32.63;;;;;;;22.94;71.71;101421.50;5007346;28;20037;-71
2023/05/22 09:12:28;;;;;;;53.80;32.83;;;;;;;23.05;68.05;101421.13;5009112;28;20402;-71
2023/05/22 09:14:54;;;;;;;49.90;32.35;;;;;;;23.08;65.13;101423.56;5008615;28;20121;-72
2023/05/22 09:17:20;;;;;;;52.33;31.98;;;;;;;23.68;67.23;101427.63;5009304;28;20180;-71
2023/05/22 09:19:46;;;;;;;50.88;31.98;;;;;;;24.28;65.33;101428.75;5008410;28;20034;-72
2023/05/22 09:22:12;;;;;;;55.65;33.28;;;;;;;24.23;62.22;101426.53;5008853;28;20319;-72
2023/05/22 09:24:43;;;;;;;53.17;33.83;;;;;;;23.98;61.38;101427.78;5007812;28;20065;-72
2023/05/22 09:27:09;;;;;;;53.90;34.83;;;;;;;24.08;62.59;101428.41;5009190;28;20046;-71
2023/05/22 09:29:49;;;;;;;54.00;33.15;;;;;;;24.06;65.10;101424.91;5007955;28;20029;-71
2023/05/22 09:32:16;;;;;;;51.38;31.75;;;;;;;24.04;64.91;101424.25;5008479;28;20033;-72
2023/05/22 09:34:43;;;;;;;45.40;29.70;;;;;;;23.83;64.08;101425.81;5008016;28;20046;-71
2023/05/22 09:37:11;;;;;;;51.83;31.83;;;;;;;23.71;63.95;101420.84;5008679;28;20073;-72
2023/05/22 09:39:47;;;;;;;47.55;29.48;;;;;;;23.77;65.43;101414.53;4990055;28;20049;-72
2023/05/22 09:42:16;;;;;;;49.78;30.73;;;;;;;23.77;64.43;101411.75;5008538;28;20125;-71
2023/05/22 09:44:46;;;;;;;46.22;29.67;;;;;;;23.77;64.44;101418.19;5007792;28;20034;-71
2023/05/22 09:47:11;;;;;;;53.25;31.88;;;;;;;23.89;65.56;101407.53;5008395;28;20359;-72
2023/05/22 09:49:46;;;;;;;56.72;33.22;;;;;;;23.83;66.24;101411.06;5007244;28;20030;-70
2023/05/22 09:52:11;;;;;;;63.72;36.20;;;;;;;23.83;64.66;101408.28;5008457;28;20479;-71
2023/05/22 09:54:49;;;;;;;58.42;34.90;;;;;;;24.23;65.81;101412.63;5007011;28;20112;-72
2023/05/22 09:57:17;;;;;;;60.08;34.60;;;;;;;24.69;62.95;101402.31;5007938;28;20034;-71
2023/05/22 09:59:52;;;;;;;64.88;35.80;;;;;;;25.07;62.62;101402.25;5027502;28;20397;-71
2023/05/22 10:02:20;;;;;;;64.18;35.70;;;;;;;25.30;61.85;101395.72;5008390;28;20128;-72
2023/05/22 10:04:48;;;;;;;55.85;34.22;;;;;;;25.32;61.08;101405.63;5007635;28;20030;-70
2023/05/22 10:07:16;;;;;;;64.07;35.58;;;;;;;25.52;59.30;101403.06;5007661;28;20042;-71
2023/05/22 10:09:44;;;;;;;57.92;36.28;;;;;;;25.56;59.37;101411.91;5020433;28;20029;-71
2023/05/22 10:12:15;;;;;;;57.05;36.75;;;;;;;25.36;58.40;101414.41;5028447;28;20064;-72
2023/05/22 10:14:41;;;;;;;56.15;33.30;;;;;;;25.61;61.69;101406.59;5017666;28;20076;-72
2023/05/22 10:17:07;;;;;;;49.72;32.55;;;;;;;25.90;59.08;101402.88;5008143;28;20040;-72
2023/05/22 10:19:34;;;;;;;57.80;34.17;;;;;;;25.92;59.49;101398.81;5007237;28;20125;-72
2023/05/22 10:22:00;;;;;;;51.17;32.78;;;;;;;25.81;57.72;101402.13;5011915;28;20032;-72
2023/05/22 10:24:26;;;;;;;52.03;33.97;;;;;;;25.74;57.34;101398.41;5023383;28;20052;-71
2023/05/22 10:26:53;;;;;;;55.70;33.17;;;;;;;25.80;56.92;101406.00;5007753;28;20034;-71
2023/05/22 10:29:23;;;;;;;44.95;31.83;;;;;;;25.93;56.68;101396.91;5007287;28;20041;-72
2023/05/22 10:32:03;;;;;;;52.42;30.98;;;;;;;26.23;59.04;101396.78;5005946;28;20033;-71
2023/05/22 10:35:15;;;;;;;47.65;29.98;;;;;;;26.30;57.69;101403.25;5009543;28;20088;-72
2023/05/22 10:38:06;;;;;;;50.22;30.90;;;;;;;26.33;57.73;101402.88;5006109;28;20075;-71
2023/05/22 10:40:33;;;;;;;45.97;28.75;;;;;;;26.28;56.88;101394.22;5006903;28;20105;-71
2023/05/22 10:43:00;;;;;;;48.10;30.48;;;;;;;26.40;55.10;101396.28;5006182;28;20030;-71
2023/05/22 10:45:27;;;;;;;50.30;31.85;;;;;;;26.41;53.43;101388.78;5007068;28;20377;-71
2023/05/22 10:48:11;;;;;;;41.17;27.25;;;;;;;26.81;56.71;101391.88;5007501;28;20034;-72
2023/05/22 10:50:37;;;;;;;42.10;30.02;;;;;;;26.85;55.33;101394.06;5006285;28;20084;-71
2023/05/22 10:53:19;;;;;;;43.00;29.92;;;;;;;27.09;53.22;101391.84;5006315;28;20120;-71
2023/05/22 10:55:50;;;;;;;38.67;28.33;;;;;;;27.39;54.85;101384.06;5006907;28;20038;-72
2023/05/22 10:58:16;;;;;;;40.90;27.27;;;;;;;27.65;51.99;101378.56;5007027;28;20614;-71
2023/05/22 11:00:42;;;;;;;46.35;29.35;;;;;;;27.69;53.92;101384.59;5006882;28;20037;-71
2023/05/22 11:03:08;;;;;;;50.83;29.35;;;;;;;27.91;53.97;101377.78;5007487;28;20555;-72
2023/05/22 11:05:35;;;;;;;44.70;30.40;;;;;;;28.15;50.14;101381.91;5006573;28;20041;-71
2023/05/22 11:08:25;;;;;;;44.70;29.80;;;;;;;28.23;53.03;101389.25;5006317;28;20275;-71
2023/05/22 11:10:55;;;;;;;40.58;27.35;;;;;;;28.19;52.08;101382.34;5006590;28;20050;-72
2023/05/22 11:13:20;;;;;;;44.42;28.75;;;;;;;28.35;51.48;101379.16;5006441;28;20469;-71
2023/05/22 11:15:47;;;;;;;44.60;30.20;;;;;;;28.04;49.17;101382.56;5005296;28;20065;-72